createdAt,value
2018-10-19T04:02:22.113Z,10.40
2018-10-19T04:04:50.467Z,10.50
2018-10-19T04:07:18.554Z,10.50
2018-10-19T04:09:46.632Z,10.50
2018-10-19T04:12:16.196Z,10.50
2018-10-19T04:14:44.293Z,10.60
2018-10-19T04:17:12.524Z,10.60
2018-10-19T04:19:41.574Z,10.70
2018-10-19T04:22:10.259Z,10.70
2018-10-19T04:24:38.376Z,10.80
2018-10-19T04:27:06.527Z,10.80
2018-10-19T04:29:34.583Z,10.90
2018-10-19T04:32:02.675Z,11.20
2018-10-19T04:34:32.068Z,11.30
2018-10-19T04:37:02.773Z,11.00
2018-10-19T04:39:32.213Z,11.20
2018-10-19T04:42:00.740Z,11.10
2018-10-19T04:44:29.270Z,11.10
2018-10-19T04:46:57.784Z,11.40
2018-10-19T04:49:25.872Z,11.40
2018-10-19T04:51:53.990Z,11.50
2018-10-19T04:54:22.468Z,11.30
2018-10-19T04:56:50.737Z,11.50
2018-10-19T04:59:19.136Z,11.30
2018-10-19T05:01:47.835Z,11.50
2018-10-19T05:04:15.927Z,11.50
2018-10-19T05:06:44.032Z,11.60
2018-10-19T05:09:12.955Z,11.40
2018-10-19T05:11:41.481Z,11.50
2018-10-19T05:14:09.712Z,11.50
2018-10-19T05:16:38.635Z,11.50
2018-10-19T05:19:07.429Z,11.70
2018-10-19T05:21:36.593Z,11.50
2018-10-19T05:24:05.952Z,11.70
2018-10-19T05:26:34.285Z,11.60
2018-10-19T05:29:04.678Z,11.60
2018-10-19T05:31:32.784Z,11.80
2018-10-19T05:34:01.658Z,11.80
2018-10-19T05:36:30.287Z,11.70
2018-10-19T05:38:58.787Z,11.70
2018-10-19T05:41:26.904Z,11.80
2018-10-19T05:43:57.084Z,11.80
2018-10-19T05:46:25.163Z,11.80
2018-10-19T05:48:56.547Z,11.80
2018-10-19T05:51:25.083Z,11.80
2018-10-19T05:53:56.787Z,12.10
2018-10-19T05:56:29.047Z,11.90
2018-10-19T05:58:58.362Z,11.90
2018-10-19T06:01:32.201Z,11.90
2018-10-19T06:04:01.340Z,11.90
2018-10-19T06:06:29.548Z,11.90
2018-10-19T06:08:57.652Z,11.90
2018-10-19T06:11:25.745Z,12.00
2018-10-19T06:13:53.853Z,12.00
2018-10-19T06:16:21.934Z,12.00
2018-10-19T06:18:50.760Z,12.00
2018-10-19T06:21:18.832Z,12.10
2018-10-19T06:23:48.231Z,12.10
2018-10-19T06:26:27.150Z,12.20
2018-10-19T06:28:55.253Z,12.30
2018-10-19T06:31:23.316Z,12.30
2018-10-19T06:33:52.344Z,12.40
2018-10-19T06:36:20.510Z,12.50
2018-10-19T06:38:58.801Z,12.70
2018-10-19T06:41:26.887Z,12.50
2018-10-19T06:43:54.972Z,12.90
2018-10-19T06:46:23.061Z,13.10
2018-10-19T06:48:51.517Z,13.30
2018-10-19T06:51:19.713Z,13.70
2018-10-19T06:53:51.547Z,13.80
2018-10-19T06:56:24.382Z,14.20
2018-10-19T06:58:53.671Z,14.10
2018-10-19T07:01:24.874Z,14.50
2018-10-19T07:03:52.995Z,14.60
2018-10-19T07:06:22.196Z,14.70
2018-10-19T07:08:55.263Z,14.70
2018-10-19T07:11:23.340Z,14.80
2018-10-19T07:13:52.039Z,14.80
2018-10-19T07:16:21.167Z,15.10
2018-10-19T07:18:53.131Z,15.10
2018-10-19T07:21:21.879Z,15.10
2018-10-19T07:23:49.969Z,15.20
2018-10-19T07:26:18.065Z,15.50
2018-10-19T07:28:46.171Z,15.40
2018-10-19T07:31:15.280Z,15.90
2018-10-19T07:33:43.476Z,15.90
2018-10-19T07:36:11.553Z,16.00
2018-10-19T07:38:39.708Z,16.10
2018-10-19T07:41:07.862Z,16.40
2018-10-19T07:43:35.908Z,16.80
2018-10-19T07:46:04.031Z,17.30
2018-10-19T07:48:32.166Z,17.90
2018-10-19T07:51:00.695Z,18.30
2018-10-19T07:53:28.818Z,18.00
2018-10-19T07:55:56.899Z,18.10
2018-10-19T07:58:24.989Z,18.20
2018-10-19T08:00:53.155Z,18.20
2018-10-19T08:03:21.771Z,18.50
2018-10-19T08:05:49.871Z,18.50
2018-10-19T08:08:18.019Z,18.60
2018-10-19T08:10:46.111Z,19.60
2018-10-19T08:13:14.200Z,20.40
2018-10-19T08:15:42.268Z,20.60
2018-10-19T08:18:10.382Z,20.90
2018-10-19T08:20:38.908Z,21.20
2018-10-19T08:23:07.061Z,21.20
2018-10-19T08:25:35.095Z,21.70
2018-10-19T08:28:03.214Z,22.00
2018-10-19T08:30:31.299Z,22.40
2018-10-19T08:32:59.472Z,22.50
2018-10-19T08:35:37.540Z,22.50
2018-10-19T08:38:05.651Z,22.40
2018-10-19T08:40:33.731Z,22.10
2018-10-19T08:43:01.942Z,21.80
2018-10-19T08:45:30.095Z,21.90
2018-10-19T08:47:58.231Z,21.90
2018-10-19T08:50:26.321Z,22.30
2018-10-19T08:52:54.435Z,22.50
2018-10-19T08:55:22.496Z,21.70
2018-10-19T08:57:50.691Z,22.10
2018-10-19T09:00:18.842Z,22.50
2018-10-19T09:02:46.854Z,22.90
2018-10-19T09:05:15.972Z,23.60
2018-10-19T09:07:44.047Z,23.00
2018-10-19T09:10:12.135Z,23.20
2018-10-19T09:12:40.422Z,23.10
2018-10-19T09:15:08.431Z,23.00
2018-10-19T09:17:36.530Z,23.60
2018-10-19T09:20:06.144Z,23.30
2018-10-19T09:22:34.247Z,24.00
2018-10-19T09:25:02.332Z,23.90
2018-10-19T09:27:30.504Z,24.50
2018-10-19T09:30:00.170Z,24.20
2018-10-19T09:32:28.252Z,23.50
2018-10-19T09:34:56.450Z,24.10
2018-10-19T09:37:24.474Z,23.40
2018-10-19T09:39:59.608Z,23.30
2018-10-19T09:42:27.682Z,24.30
2018-10-19T09:44:55.777Z,24.40
2018-10-19T09:47:23.858Z,23.80
2018-10-19T09:49:51.952Z,23.80
2018-10-19T09:52:20.089Z,23.60
2018-10-19T09:54:48.219Z,24.30
2018-10-19T09:57:17.214Z,24.10
2018-10-19T09:59:46.380Z,22.60
2018-10-19T10:02:14.460Z,22.50
2018-10-19T10:04:42.638Z,23.20
2018-10-19T10:07:10.882Z,24.50
2018-10-19T10:09:38.951Z,24.90
2018-10-19T10:12:07.039Z,25.00
2018-10-19T10:14:37.251Z,25.80
2018-10-19T10:17:05.331Z,24.60
2018-10-19T10:19:34.323Z,24.50
2018-10-19T10:22:02.465Z,25.10
2018-10-19T10:24:30.558Z,24.90
2018-10-19T10:26:58.753Z,26.10
2018-10-19T10:29:26.827Z,25.70
2018-10-19T10:31:54.948Z,25.80
2018-10-19T10:34:23.051Z,25.60
2018-10-19T10:36:51.180Z,26.00
2018-10-19T10:39:19.373Z,26.00
2018-10-19T10:41:47.392Z,25.70
